TimePST,TemperatureF,Dew PointF,Humidity,Sea Level PressureIn,VisibilityMPH,Wind Direction,Wind SpeedMPH,Gust SpeedMPH,PrecipitationIn,Events,Conditions,WindDirDegrees,DateUTC
12:52 AM,30.9,8.1,38,30.27,10.0,North,12.7,-,N/A,,Clear,10,2013-01-02 08:52:00
1:52 AM,32.0,8.1,37,30.28,10.0,NNE,13.8,-,N/A,,Clear,30,2013-01-02 09:52:00
2:52 AM,30.9,8.1,38,30.29,10.0,NE,12.7,-,N/A,,Clear,40,2013-01-02 10:52:00
3:52 AM,34.0,7.0,32,30.26,10.0,NE,17.3,-,N/A,,Clear,50,2013-01-02 11:52:00
4:52 AM,32.0,8.1,37,30.26,10.0,North,12.7,-,N/A,,Clear,10,2013-01-02 12:52:00
6:52 AM,33.1,8.1,35,30.25,10.0,NE,16.1,-,N/A,,Clear,40,2013-01-02 14:52:00
7:52 AM,33.1,8.1,35,30.25,10.0,NE,16.1,24.2,N/A,,Clear,40,2013-01-02 15:52:00
8:52 AM,37.9,8.1,29,30.25,10.0,NE,13.8,-,N/A,,Scattered Clouds,40,2013-01-02 16:52:00
9:52 AM,43.0,9.0,25,30.25,10.0,ENE,10.4,-,N/A,,Scattered Clouds,70,2013-01-02 17:52:00
10:52 AM,43.0,9.0,25,30.23,10.0,NNE,15.0,-,N/A,,Clear,30,2013-01-02 18:52:00
11:52 AM,48.0,10.0,22,30.19,10.0,NNE,10.4,-,N/A,,Clear,20,2013-01-02 19:52:00
12:52 PM,48.9,10.0,21,30.14,10.0,ESE,12.7,-,N/A,,Clear,110,2013-01-02 20:52:00
1:52 PM,52.0,10.0,19,30.13,10.0,NE,8.1,-,N/A,,Clear,50,2013-01-02 21:52:00
2:52 PM,52.0,9.0,18,30.13,10.0,East,10.4,17.3,N/A,,Clear,80,2013-01-02 22:52:00
3:52 PM,48.9,9.0,20,30.13,10.0,ESE,13.8,-,N/A,,Clear,110,2013-01-02 23:52:00
4:52 PM,46.0,9.0,22,30.15,10.0,East,10.4,-,N/A,,Clear,80,2013-01-03 00:52:00
5:52 PM,42.1,12.0,29,30.16,10.0,NE,10.4,-,N/A,,Clear,40,2013-01-03 01:52:00
6:52 PM,41.0,10.9,29,30.17,10.0,NNE,18.4,-,N/A,,Clear,30,2013-01-03 02:52:00
7:52 PM,39.0,10.0,30,30.19,10.0,NNE,16.1,-,N/A,,Clear,20,2013-01-03 03:52:00
8:52 PM,39.0,10.0,30,30.18,10.0,NNE,19.6,-,N/A,,Clear,20,2013-01-03 04:52:00
9:52 PM,37.9,10.9,33,30.19,10.0,NE,16.1,-,N/A,,Clear,40,2013-01-03 05:52:00
10:52 PM,37.9,10.0,32,30.19,10.0,NNE,18.4,24.2,N/A,,Clear,30,2013-01-03 06:52:00
11:52 PM,37.0,10.0,33,30.17,10.0,East,3.5,-,N/A,,Clear,90,2013-01-03 07:52:00